Time;durP1;ratioP1;P1;durP2;ratioP2;P2;SDS_P1;SDS_P2;PMS_P1;PMS_P2;Temp;Humidity;BMP_temperature;BMP_pressure;BME280_temperature;BME280_humidity;BME280_pressure;Samples;Min_cycle;Max_cycle;Signal;HPM_P1;HPM_P2
2023/07/14 00:01:44;;;;;;;5.70;1.80;;;14.30;99.90;;;;;;5093198;28;20104;-65
2023/07/14 00:04:15;;;;;;;8.27;2.45;;;14.30;99.90;;;;;;5074882;28;20540;-65
2023/07/14 00:06:41;;;;;;;4.10;2.13;;;14.40;99.90;;;;;;5086053;28;20174;-65
2023/07/14 00:09:26;;;;;;;4.10;2.25;;;14.30;99.90;;;;;;5054757;28;20044;-65
2023/07/14 00:11:52;;;;;;;3.17;1.83;;;14.30;99.90;;;;;;5037902;28;20044;-65
2023/07/14 00:14:19;;;;;;;7.35;2.38;;;14.30;99.90;;;;;;5047036;28;20055;-65
2023/07/14 00:16:45;;;;;;;5.50;2.22;;;14.30;99.90;;;;;;5018075;28;20052;-65
2023/07/14 00:19:13;;;;;;;4.50;2.17;;;14.20;99.90;;;;;;5029937;28;20044;-66
2023/07/14 00:21:39;;;;;;;4.15;2.10;;;14.30;99.90;;;;;;5037226;28;20036;-65
2023/07/14 00:24:11;;;;;;;5.55;3.17;;;14.30;99.90;;;;;;5072486;28;20061;-65
2023/07/14 00:26:40;;;;;;;6.55;2.85;;;14.30;99.90;;;;;;5087649;28;20489;-65
2023/07/14 00:29:26;;;;;;;5.72;2.38;;;14.40;99.90;;;;;;5074182;28;20048;-65
2023/07/14 00:31:52;;;;;;;4.20;2.45;;;14.40;99.90;;;;;;5024066;28;20070;-64
2023/07/14 00:34:18;;;;;;;4.18;1.88;;;14.40;99.90;;;;;;5053744;28;20044;-65
2023/07/14 00:36:43;;;;;;;3.75;1.83;;;14.40;99.90;;;;;;5054197;28;20128;-65
2023/07/14 00:39:10;;;;;;;5.70;3.08;;;14.30;99.90;;;;;;5087767;28;20500;-65
2023/07/14 00:41:36;;;;;;;7.20;2.78;;;14.30;99.90;;;;;;5090805;28;20036;-66
2023/07/14 00:44:02;;;;;;;4.03;2.15;;;14.40;99.90;;;;;;5074281;28;20036;-65
2023/07/14 00:46:33;;;;;;;4.32;2.35;;;14.30;99.90;;;;;;5074030;28;20401;-65
2023/07/14 00:49:10;;;;;;;4.82;2.15;;;14.30;99.90;;;;;;5073224;28;20040;-65
2023/07/14 00:51:36;;;;;;;5.45;2.20;;;14.30;99.90;;;;;;5073913;28;20116;-65
2023/07/14 00:54:03;;;;;;;4.60;2.80;;;14.30;99.90;;;;;;5073955;28;20056;-65
2023/07/14 00:56:47;;;;;;;4.88;2.53;;;14.20;99.90;;;;;;5073507;28;20127;-65
2023/07/14 00:59:17;;;;;;;4.47;2.72;;;14.20;99.90;;;;;;5091887;28;20062;-65
2023/07/14 01:02:11;;;;;;;6.53;2.50;;;14.20;99.90;;;;;;5073431;28;20051;-65
2023/07/14 01:04:44;;;;;;;5.43;2.45;;;14.20;99.90;;;;;;5053631;28;20512;-65
2023/07/14 01:07:12;;;;;;;4.38;1.90;;;14.10;99.90;;;;;;5053630;28;20044;-65
2023/07/14 01:09:39;;;;;;;5.68;2.65;;;14.10;99.90;;;;;;5053055;28;20131;-65
2023/07/14 01:12:07;;;;;;;7.82;2.22;;;14.10;99.90;;;;;;5091343;28;20048;-65
2023/07/14 01:14:40;;;;;;;3.28;1.73;;;14.10;99.90;;;;;;5073521;28;20087;-65
2023/07/14 01:17:06;;;;;;;3.58;1.52;;;14.10;99.90;;;;;;5091009;28;20692;-65
2023/07/14 01:19:50;;;;;;;4.20;1.92;;;14.10;99.90;;;;;;5073554;28;20040;-65
2023/07/14 01:22:29;;;;;;;8.60;2.90;;;14.10;99.90;;;;;;5091666;28;20468;-66
2023/07/14 01:25:14;;;;;;;8.05;2.80;;;14.20;99.90;;;;;;5072472;28;20064;-65
2023/07/14 01:27:40;;;;;;;5.03;2.38;;;14.30;99.90;;;;;;5091018;28;20102;-65
2023/07/14 01:30:06;;;;;;;5.00;3.03;;;14.30;99.90;;;;;;5072513;28;20759;-64
2023/07/14 01:32:42;;;;;;;3.88;1.80;;;14.30;99.90;;;;;;5091576;28;20055;-66
2023/07/14 01:35:09;;;;;;;8.10;2.92;;;14.30;99.90;;;;;;5073448;28;20044;-66
2023/07/14 01:37:37;;;;;;;3.28;1.85;;;14.40;99.90;;;;;;5090694;28;20372;-65
2023/07/14 01:40:06;;;;;;;3.55;2.00;;;14.40;99.90;;;;;;5072996;28;20122;-66
2023/07/14 01:42:33;;;;;;;5.85;2.30;;;14.40;99.90;;;;;;5072961;28;20040;-66
2023/07/14 01:45:00;;;;;;;3.38;1.95;;;14.50;99.90;;;;;;5064817;28;20039;-65
2023/07/14 01:47:28;;;;;;;4.70;2.42;;;14.50;99.90;;;;;;5053123;28;20074;-65
2023/07/14 01:49:55;;;;;;;4.35;2.10;;;14.50;99.90;;;;;;5067623;28;20040;-65
2023/07/14 01:52:25;;;;;;;5.82;2.22;;;14.50;99.90;;;;;;5090397;28;20052;-65
2023/07/14 01:55:00;;;;;;;4.03;2.15;;;14.50;99.90;;;;;;5072817;28;20036;-65
2023/07/14 01:57:29;;;;;;;6.05;2.10;;;14.50;99.90;;;;;;5072750;28;20139;-65
2023/07/14 02:00:04;;;;;;;6.90;2.17;;;14.60;99.90;;;;;;5089176;28;20123;-65
2023/07/14 02:02:35;;;;;;;5.82;2.28;;;14.50;99.90;;;;;;5089580;28;20036;-66
2023/07/14 02:05:17;;;;;;;3.97;1.52;;;14.50;99.90;;;;;;5088815;28;20119;-66
2023/07/14 02:07:43;;;;;;;4.38;2.35;;;14.50;99.90;;;;;;5060997;28;20090;-66
2023/07/14 02:10:15;;;;;;;6.10;3.03;;;14.50;99.90;;;;;;5090775;28;20087;-65
2023/07/14 02:12:46;;;;;;;5.82;2.50;;;14.40;99.90;;;;;;5072007;28;20044;-66
2023/07/14 02:15:20;;;;;;;5.47;2.53;;;14.40;99.90;;;;;;5072429;28;20051;-65
2023/07/14 02:17:47;;;;;;;4.40;1.80;;;14.40;99.90;;;;;;5072659;28;20169;-65
2023/07/14 02:20:24;;;;;;;4.32;1.85;;;14.30;99.90;;;;;;5089710;28;20044;-65
2023/07/14 02:22:53;;;;;;;3.75;1.52;;;14.30;99.90;;;;;;5072486;28;20043;-65
2023/07/14 02:25:22;;;;;;;5.70;1.75;;;14.30;99.90;;;;;;5071916;28;20107;-65
2023/07/14 02:27:48;;;;;;;3.75;2.42;;;14.30;99.90;;;;;;5071675;28;20050;-66
2023/07/14 02:30:20;;;;;;;4.38;2.30;;;14.20;99.90;;;;;;5090328;28;20377;-65
2023/07/14 02:32:51;;;;;;;4.38;1.85;;;14.20;99.90;;;;;;5089827;28;20101;-66
2023/07/14 02:35:47;;;;;;;4.75;1.98;;;14.20;99.90;;;;;;5072094;28;20050;-65
2023/07/14 02:38:15;;;;;;;2.63;1.63;;;14.20;99.90;;;;;;5071271;28;20052;-65
2023/07/14 02:40:50;;;;;;;3.92;2.42;;;14.20;99.90;;;;;;5067917;28;20037;-66
2023/07/14 02:43:19;;;;;;;4.80;1.70;;;14.10;99.90;;;;;;5052120;28;20378;-65
2023/07/14 02:46:01;;;;;;;3.13;1.70;;;14.10;99.90;;;;;;5081244;28;20499;-66
2023/07/14 02:48:38;;;;;;;6.90;2.00;;;14.10;99.90;;;;;;5071422;28;20038;-66
2023/07/14 02:51:04;;;;;;;4.63;1.52;;;14.10;99.90;;;;;;5055360;28;20044;-65
2023/07/14 02:53:30;;;;;;;5.03;1.83;;;14.00;99.90;;;;;;5055156;28;20420;-65
2023/07/14 02:55:55;;;;;;;4.38;1.55;;;14.00;99.90;;;;;;5078647;28;20683;-65
2023/07/14 02:58:21;;;;;;;3.13;1.55;;;14.00;99.90;;;;;;5051783;28;20044;-64
2023/07/14 03:00:48;;;;;;;2.03;1.13;;;14.00;99.90;;;;;;5085195;28;20838;-65
2023/07/14 03:03:14;;;;;;;3.15;1.48;;;14.00;99.90;;;;;;5089662;28;20477;-64
2023/07/14 03:05:40;;;;;;;3.20;1.45;;;14.00;99.90;;;;;;5089639;28;20506;-64
2023/07/14 03:08:14;;;;;;;2.15;1.27;;;13.90;99.90;;;;;;5071063;28;20035;-65
2023/07/14 03:10:56;;;;;;;2.42;1.50;;;13.90;99.90;;;;;;5089745;28;20036;-65
2023/07/14 03:13:22;;;;;;;3.03;1.23;;;13.90;99.90;;;;;;5054810;28;20044;-65
2023/07/14 03:15:48;;;;;;;1.83;1.00;;;13.90;99.90;;;;;;5088896;28;20055;-65
2023/07/14 03:18:14;;;;;;;5.22;1.50;;;13.80;99.90;;;;;;5071390;28;20044;-65
2023/07/14 03:20:41;;;;;;;2.67;1.30;;;13.80;99.90;;;;;;5070215;28;20048;-65
2023/07/14 03:23:07;;;;;;;2.88;1.65;;;13.70;99.90;;;;;;5088992;28;20055;-65
2023/07/14 03:25:34;;;;;;;3.33;1.23;;;13.70;99.90;;;;;;5070927;28;20762;-64
2023/07/14 03:28:03;;;;;;;2.72;1.48;;;13.60;99.90;;;;;;5071189;28;20068;-64
2023/07/14 03:30:31;;;;;;;2.63;1.30;;;13.60;99.90;;;;;;5070760;28;20070;-65
2023/07/14 03:32:57;;;;;;;4.90;1.23;;;13.60;99.90;;;;;;5071462;28;20611;-64
2023/07/14 03:35:23;;;;;;;1.67;0.93;;;13.60;99.90;;;;;;5071380;28;20131;-65
2023/07/14 03:37:48;;;;;;;3.53;1.08;;;13.60;99.90;;;;;;5041588;28;20045;-65
2023/07/14 03:40:15;;;;;;;4.70;1.17;;;13.60;99.90;;;;;;5069218;28;20116;-65
2023/07/14 03:42:43;;;;;;;2.45;1.13;;;13.60;99.90;;;;;;5067647;28;20118;-65
2023/07/14 03:45:09;;;;;;;5.03;1.25;;;13.60;99.90;;;;;;5054377;28;20039;-64
2023/07/14 03:47:38;;;;;;;3.22;1.40;;;13.60;99.90;;;;;;5071381;28;20054;-65
2023/07/14 03:50:04;;;;;;;3.92;1.73;;;13.60;99.90;;;;;;5070618;28;20040;-65
2023/07/14 03:52:31;;;;;;;2.65;1.23;;;13.60;99.90;;;;;;5066069;28;20047;-65
2023/07/14 03:54:56;;;;;;;1.95;0.98;;;13.60;99.90;;;;;;5071172;28;20052;-66
2023/07/14 03:57:22;;;;;;;1.80;1.00;;;13.60;99.90;;;;;;5088629;28;20051;-65
2023/07/14 03:59:48;;;;;;;2.47;1.27;;;13.60;99.90;;;;;;5070598;28;20040;-66
2023/07/14 04:02:14;;;;;;;2.75;1.30;;;13.60;99.90;;;;;;5087852;28;20038;-65
2023/07/14 04:04:40;;;;;;;3.45;1.17;;;13.60;99.90;;;;;;5087364;28;20067;-66
2023/07/14 04:07:07;;;;;;;4.68;1.70;;;13.60;99.90;;;;;;5088014;28;20753;-66
2023/07/14 04:09:33;;;;;;;6.65;1.73;;;13.50;99.90;;;;;;5087820;28;20485;-65
2023/07/14 04:11:59;;;;;;;2.13;1.27;;;13.50;99.90;;;;;;5087024;28;20058;-64
2023/07/14 04:14:25;;;;;;;4.22;1.30;;;13.60;99.90;;;;;;5087726;28;20044;-65
2023/07/14 04:16:50;;;;;;;4.85;1.58;;;13.60;99.90;;;;;;5088015;28;20069;-65
2023/07/14 04:19:16;;;;;;;3.30;0.90;;;13.60;99.90;;;;;;5087092;28;20040;-65
2023/07/14 04:21:42;;;;;;;6.65;1.83;;;13.60;99.90;;;;;;5087782;28;20051;-66
2023/07/14 04:24:08;;;;;;;2.03;1.00;;;13.70;99.90;;;;;;5087620;28;20140;-65
2023/07/14 04:26:34;;;;;;;2.70;1.45;;;13.70;99.90;;;;;;5090002;28;20060;-65
2023/07/14 04:29:00;;;;;;;3.47;1.70;;;13.70;99.90;;;;;;5109001;28;20055;-66
2023/07/14 04:31:28;;;;;;;2.92;1.35;;;13.80;99.90;;;;;;5056734;28;20079;-65
2023/07/14 04:33:54;;;;;;;1.42;0.90;;;13.80;99.90;;;;;;5059286;28;20133;-66
2023/07/14 04:36:20;;;;;;;1.98;1.30;;;13.90;99.90;;;;;;5072444;28;20044;-65
2023/07/14 04:39:02;;;;;;;2.53;1.42;;;13.90;99.90;;;;;;5070414;28;20109;-66
2023/07/14 04:41:28;;;;;;;2.72;1.20;;;14.00;99.90;;;;;;5072179;28;20041;-65
2023/07/14 04:43:54;;;;;;;2.30;1.20;;;14.10;99.90;;;;;;5054010;28;20036;-65
2023/07/14 04:46:20;;;;;;;3.25;1.35;;;14.10;99.90;;;;;;5070214;28;20040;-65
2023/07/14 04:48:45;;;;;;;4.90;1.42;;;14.20;99.90;;;;;;5070654;28;20072;-65
2023/07/14 04:51:11;;;;;;;3.20;1.00;;;14.20;99.90;;;;;;5072166;28;20098;-64
2023/07/14 04:53:37;;;;;;;4.95;1.38;;;14.30;99.90;;;;;;5070313;28;20659;-65
2023/07/14 04:56:03;;;;;;;2.85;1.38;;;14.40;99.90;;;;;;5071811;28;21165;-65
2023/07/14 04:58:29;;;;;;;4.20;1.80;;;14.40;99.90;;;;;;5071489;28;20093;-65
2023/07/14 05:00:55;;;;;;;1.85;1.17;;;14.50;99.90;;;;;;5072514;28;20044;-66
2023/07/14 05:03:21;;;;;;;6.18;1.50;;;14.60;99.90;;;;;;5073683;28;20078;-66
2023/07/14 05:05:47;;;;;;;2.38;1.20;;;14.60;99.90;;;;;;5073797;28;20545;-65
2023/07/14 05:08:13;;;;;;;1.98;1.08;;;14.80;99.90;;;;;;5091237;28;20040;-65
2023/07/14 05:10:39;;;;;;;1.90;1.10;;;14.90;99.90;;;;;;5073655;28;20396;-65
2023/07/14 05:13:06;;;;;;;2.38;1.02;;;15.00;99.90;;;;;;5073551;28;20043;-64
2023/07/14 05:15:32;;;;;;;6.75;1.42;;;15.10;99.90;;;;;;5073097;28;20123;-64
2023/07/14 05:17:59;;;;;;;5.75;1.60;;;15.20;99.90;;;;;;5073637;28;20044;-64
2023/07/14 05:20:24;;;;;;;2.72;1.15;;;15.30;99.90;;;;;;5073437;28;20495;-65
2023/07/14 05:22:52;;;;;;;3.13;1.50;;;15.40;99.90;;;;;;5072995;28;20071;-64
2023/07/14 05:25:19;;;;;;;3.90;1.42;;;15.50;99.90;;;;;;5073079;28;20503;-66
2023/07/14 05:27:45;;;;;;;8.82;1.77;;;15.60;99.90;;;;;;5034687;28;20122;-64
2023/07/14 05:30:22;;;;;;;3.05;1.40;;;15.60;99.90;;;;;;5059495;28;20392;-65
2023/07/14 05:32:49;;;;;;;3.45;1.02;;;15.60;99.90;;;;;;5069704;28;20361;-66
2023/07/14 05:35:16;;;;;;;4.28;1.50;;;15.70;99.90;;;;;;5088489;28;20044;-68
2023/07/14 05:37:44;;;;;;;3.75;1.65;;;15.80;99.90;;;;;;5091205;28;20079;-66
2023/07/14 05:40:11;;;;;;;3.97;1.40;;;15.80;99.90;;;;;;5091177;28;20044;-66
2023/07/14 05:42:38;;;;;;;3.25;1.92;;;15.90;99.90;;;;;;5055121;28;20044;-65
2023/07/14 05:45:05;;;;;;;3.30;1.70;;;16.00;99.90;;;;;;5090874;28;20032;-66
2023/07/14 05:47:33;;;;;;;4.00;2.35;;;16.00;99.90;;;;;;5072767;28;20040;-65
2023/07/14 05:50:00;;;;;;;4.22;1.70;;;16.10;99.90;;;;;;5055596;28;20047;-66
2023/07/14 05:52:26;;;;;;;5.65;1.80;;;16.10;99.90;;;;;;5078799;28;20040;-65
2023/07/14 05:54:52;;;;;;;4.90;2.20;;;16.20;99.90;;;;;;5053084;28;20063;-66
2023/07/14 05:57:18;;;;;;;3.53;1.30;;;16.30;99.90;;;;;;5052440;28;20045;-65
2023/07/14 05:59:44;;;;;;;2.45;1.08;;;16.40;99.90;;;;;;5090321;28;20043;-66
2023/07/14 06:02:14;;;;;;;4.07;1.60;;;16.50;99.90;;;;;;5092844;28;20042;-66
2023/07/14 06:04:43;;;;;;;3.90;1.88;;;16.60;99.90;;;;;;5110529;28;20028;-66
2023/07/14 06:07:10;;;;;;;4.95;2.28;;;16.70;99.90;;;;;;5091026;28;20400;-65
2023/07/14 06:09:37;;;;;;;4.88;2.55;;;16.70;99.90;;;;;;5069115;28;20194;-65
2023/07/14 06:12:05;;;;;;;4.10;1.65;;;16.80;99.90;;;;;;5054931;28;20041;-65
2023/07/14 06:14:35;;;;;;;4.85;1.80;;;16.80;99.90;;;;;;5072348;28;20556;-67
2023/07/14 06:17:03;;;;;;;4.47;2.35;;;16.90;99.90;;;;;;5071541;28;20039;-65
2023/07/14 06:19:29;;;;;;;4.28;1.60;;;16.90;99.90;;;;;;5090275;28;20047;-66
2023/07/14 06:21:56;;;;;;;3.67;2.17;;;17.00;99.90;;;;;;5090449;28;20376;-65
2023/07/14 06:24:23;;;;;;;2.92;1.27;;;17.10;99.90;;;;;;5071800;28;20051;-66
2023/07/14 06:26:49;;;;;;;4.68;1.45;;;17.20;99.90;;;;;;5089904;28;20054;-66
2023/07/14 06:29:15;;;;;;;3.00;1.83;;;17.20;99.90;;;;;;5072083;28;20043;-66
2023/07/14 06:31:41;;;;;;;6.03;1.80;;;17.40;99.90;;;;;;5089423;28;20044;-67
2023/07/14 06:34:07;;;;;;;4.53;2.15;;;17.40;99.90;;;;;;5086843;28;20046;-67
2023/07/14 06:36:34;;;;;;;4.30;1.42;;;17.60;99.90;;;;;;5090002;28;20389;-66
2023/07/14 06:39:03;;;;;;;4.70;1.70;;;17.70;99.90;;;;;;5071425;28;20036;-66
2023/07/14 06:41:29;;;;;;;4.53;1.58;;;17.80;99.90;;;;;;5050242;28;20047;-67
2023/07/14 06:43:55;;;;;;;4.50;1.83;;;17.90;99.90;;;;;;5060851;28;20119;-67
2023/07/14 06:46:21;;;;;;;5.72;1.85;;;18.10;99.90;;;;;;5051526;28;20123;-66
2023/07/14 06:48:47;;;;;;;5.80;1.20;;;18.30;99.90;;;;;;5064424;28;20665;-67
2023/07/14 06:51:13;;;;;;;3.38;1.60;;;18.50;99.90;;;;;;5054723;28;20097;-68
2023/07/14 06:53:40;;;;;;;5.00;1.40;;;18.60;99.90;;;;;;5054937;28;20036;-66
2023/07/14 06:56:07;;;;;;;2.30;1.45;;;18.80;99.90;;;;;;5035353;28;20086;-67
2023/07/14 06:58:33;;;;;;;6.30;2.22;;;18.90;99.90;;;;;;5069461;28;20050;-65
2023/07/14 07:01:00;;;;;;;5.65;1.33;;;19.10;99.90;;;;;;5089458;28;20044;-68
2023/07/14 07:03:27;;;;;;;3.78;1.50;;;19.30;99.90;;;;;;5110572;28;20407;-67
2023/07/14 07:05:53;;;;;;;3.25;1.38;;;19.40;99.90;;;;;;5109276;28;20135;-68
2023/07/14 07:08:20;;;;;;;2.05;1.27;;;19.60;99.90;;;;;;5076232;28;20037;-67
2023/07/14 07:10:47;;;;;;;2.45;1.08;;;19.70;99.90;;;;;;5065744;28;20059;-67
2023/07/14 07:13:14;;;;;;;2.20;1.23;;;19.90;99.90;;;;;;5050734;28;20048;-67
2023/07/14 07:15:41;;;;;;;1.95;1.17;;;20.10;99.90;;;;;;5077711;28;20032;-66
2023/07/14 07:18:07;;;;;;;4.28;1.52;;;20.20;99.90;;;;;;5071071;28;20075;-67
2023/07/14 07:20:36;;;;;;;2.20;0.90;;;20.30;99.90;;;;;;5045174;28;20056;-67
2023/07/14 07:23:02;;;;;;;2.97;1.20;;;20.30;99.90;;;;;;5059770;28;20033;-68
2023/07/14 07:25:28;;;;;;;3.55;1.10;;;20.40;99.90;;;;;;5069036;28;20493;-69
2023/07/14 07:27:54;;;;;;;3.03;1.00;;;20.50;99.90;;;;;;5046663;28;20041;-67
2023/07/14 07:30:19;;;;;;;2.35;1.35;;;20.50;99.90;;;;;;5069087;28;20124;-67
2023/07/14 07:32:46;;;;;;;4.28;1.23;;;20.40;99.90;;;;;;5051449;28;20045;-67
2023/07/14 07:35:13;;;;;;;2.30;1.25;;;20.40;99.90;;;;;;5067551;28;20078;-67
2023/07/14 07:37:39;;;;;;;1.88;0.93;;;20.50;99.90;;;;;;5071246;28;20044;-67
2023/07/14 07:40:06;;;;;;;1.70;1.15;;;20.50;99.90;;;;;;5071101;28;20046;-68
2023/07/14 07:42:34;;;;;;;2.50;1.35;;;20.60;99.90;;;;;;5070626;28;20139;-67
2023/07/14 07:45:00;;;;;;;2.95;1.00;;;20.70;99.90;;;;;;5041564;28;20040;-67
2023/07/14 07:47:27;;;;;;;4.30;0.70;;;20.90;99.90;;;;;;5051266;28;20056;-67
2023/07/14 07:49:53;;;;;;;1.48;0.70;;;21.20;99.90;;;;;;5068357;28;20046;-68
2023/07/14 07:52:20;;;;;;;2.17;0.82;;;21.40;99.90;;;;;;5051314;28;20114;-66
2023/07/14 07:54:46;;;;;;;1.48;0.73;;;21.60;99.90;;;;;;5052018;28;20063;-68
2023/07/14 07:57:12;;;;;;;2.78;0.85;;;21.60;99.90;;;;;;5068760;28;20051;-67
2023/07/14 07:59:39;;;;;;;3.55;0.70;;;21.70;99.90;;;;;;5088486;28;20709;-67
2023/07/14 08:02:09;;;;;;;2.10;0.93;;;21.80;99.90;;;;;;5090779;28;20039;-68
2023/07/14 08:04:35;;;;;;;2.17;0.70;;;21.90;99.90;;;;;;5093147;28;20036;-68
2023/07/14 08:07:00;;;;;;;1.27;0.47;;;22.10;99.90;;;;;;5089668;28;20031;-67
2023/07/14 08:09:26;;;;;;;1.67;0.75;;;22.20;99.90;;;;;;5064232;28;20040;-66
2023/07/14 08:11:56;;;;;;;1.50;0.60;;;22.20;99.90;;;;;;5092101;28;20097;-69
2023/07/14 08:14:25;;;;;;;2.40;0.57;;;22.10;99.90;;;;;;5093415;28;20425;-67
2023/07/14 08:16:51;;;;;;;1.45;0.90;;;22.10;99.90;;;;;;5058212;28;20118;-67
2023/07/14 08:19:17;;;;;;;1.23;0.50;;;22.10;99.90;;;;;;5093439;28;20071;-68
2023/07/14 08:21:43;;;;;;;1.15;0.68;;;22.20;99.90;;;;;;5075470;28;20043;-67
2023/07/14 08:24:09;;;;;;;1.20;0.40;;;22.30;99.90;;;;;;5092843;28;20040;-68
2023/07/14 08:26:37;;;;;;;2.38;0.93;;;22.50;99.90;;;;;;5042726;28;20103;-67
2023/07/14 08:29:05;;;;;;;4.22;0.98;;;22.60;99.90;;;;;;5038405;28;20047;-67
2023/07/14 08:31:30;;;;;;;1.00;0.50;;;22.60;99.90;;;;;;5047222;28;20040;-67
2023/07/14 08:33:56;;;;;;;1.85;0.88;;;22.80;99.90;;;;;;5050391;28;20167;-68
2023/07/14 08:36:23;;;;;;;2.08;0.93;;;22.70;99.90;;;;;;5054555;28;20044;-69
2023/07/14 08:38:50;;;;;;;2.17;0.70;;;22.80;99.90;;;;;;5054316;28;20071;-68
2023/07/14 08:41:36;;;;;;;2.28;0.80;;;22.70;99.90;;;;;;5038246;28;20489;-68
2023/07/14 08:44:28;;;;;;;2.08;0.75;;;22.80;99.90;;;;;;5072027;28;20028;-67
2023/07/14 08:47:04;;;;;;;2.50;0.75;;;22.80;99.90;;;;;;5038260;28;20090;-69
2023/07/14 08:49:48;;;;;;;3.10;1.10;;;22.80;99.90;;;;;;5054487;28;20080;-67
2023/07/14 08:52:28;;;;;;;2.13;1.00;;;22.50;99.40;;;;;;5054146;28;20040;-67
2023/07/14 08:55:01;;;;;;;1.45;1.00;;;21.90;99.00;;;;;;5071895;28;20045;-68
2023/07/14 08:57:28;;;;;;;1.75;0.82;;;21.80;99.90;;;;;;5071061;28;20389;-68
2023/07/14 09:00:00;;;;;;;0.98;0.57;;;21.90;99.90;;;;;;5071200;28;20036;-67
2023/07/14 09:02:41;;;;;;;1.55;0.85;;;22.10;99.90;;;;;;5045287;28;20473;-69
2023/07/14 09:05:20;;;;;;;1.63;0.88;;;22.40;99.80;;;;;;5050726;28;20105;-68
2023/07/14 09:07:46;;;;;;;1.38;0.52;;;22.60;99.20;;;;;;5053662;28;21345;-67
2023/07/14 09:10:12;;;;;;;4.20;0.80;;;22.80;98.60;;;;;;5047418;28;20452;-68
2023/07/14 09:12:57;;;;;;;1.98;0.98;;;23.10;99.90;;;;;;5051780;28;20036;-67
2023/07/14 09:15:25;;;;;;;6.70;0.90;;;23.40;99.30;;;;;;5043495;28;20496;-68
2023/07/14 09:18:12;;;;;;;2.80;1.13;;;23.20;99.30;;;;;;5044078;28;20091;-67
2023/07/14 09:21:13;;;;;;;2.50;0.60;;;23.20;99.20;;;;;;5067265;28;20373;-68
2023/07/14 09:23:57;;;;;;;2.20;0.88;;;23.50;99.90;;;;;;5043926;28;20035;-69
2023/07/14 09:26:28;;;;;;;1.65;0.88;;;24.00;98.00;;;;;;5042988;28;20095;-70
2023/07/14 09:28:56;;;;;;;1.92;0.85;;;24.10;97.90;;;;;;5047037;28;20033;-68
2023/07/14 09:31:31;;;;;;;1.87;0.73;;;24.20;98.20;;;;;;5089745;28;20496;-68
2023/07/14 09:34:00;;;;;;;3.53;1.20;;;24.20;98.20;;;;;;5071069;28;20040;-69
2023/07/14 09:36:28;;;;;;;1.63;0.73;;;24.20;98.00;;;;;;5089655;28;20036;-68
2023/07/14 09:38:59;;;;;;;2.55;1.00;;;24.50;98.30;;;;;;5089541;28;20040;-68
2023/07/14 09:41:30;;;;;;;2.40;0.60;;;24.80;98.30;;;;;;5066419;28;20036;-68
2023/07/14 09:44:00;;;;;;;2.30;0.65;;;24.90;97.10;;;;;;5087915;28;20513;-66
2023/07/14 09:46:40;;;;;;;2.20;1.02;;;25.00;97.00;;;;;;5066844;28;20457;-68
2023/07/14 09:49:17;;;;;;;3.00;1.10;;;24.90;93.30;;;;;;5089268;28;20032;-68
2023/07/14 09:52:11;;;;;;;2.88;1.00;;;24.70;95.40;;;;;;5052244;28;20040;-68
2023/07/14 09:54:51;;;;;;;2.90;0.77;;;24.30;95.10;;;;;;5066396;28;20507;-68
2023/07/14 09:57:19;;;;;;;2.03;0.90;;;24.00;95.60;;;;;;5084693;28;20043;-68
2023/07/14 09:59:55;;;;;;;5.07;1.33;;;23.80;96.00;;;;;;5065843;28;20508;-69
2023/07/14 10:02:34;;;;;;;3.72;1.05;;;23.70;94.30;;;;;;5066311;28;20040;-68
2023/07/14 10:05:03;;;;;;;1.63;0.57;;;23.50;94.10;;;;;;5064719;28;20043;-68
2023/07/14 10:07:37;;;;;;;1.75;0.82;;;23.20;95.20;;;;;;5063644;28;20774;-69
2023/07/14 10:10:15;;;;;;;4.00;1.40;;;23.00;96.00;;;;;;5066830;28;20118;-69
2023/07/14 10:12:47;;;;;;;2.30;0.85;;;22.90;96.30;;;;;;5088886;28;20047;-68
2023/07/14 10:15:30;;;;;;;2.25;0.90;;;22.90;96.50;;;;;;5088452;28;20408;-66
2023/07/14 10:18:02;;;;;;;1.88;0.80;;;22.80;95.60;;;;;;5089789;28;20074;-66
2023/07/14 10:20:31;;;;;;;1.52;1.05;;;22.50;95.10;;;;;;5090220;28;20047;-69
2023/07/14 10:22:58;;;;;;;4.60;1.27;;;22.20;95.70;;;;;;5089616;28;20036;-67
2023/07/14 10:25:27;;;;;;;0.95;0.57;;;22.10;95.90;;;;;;5071946;28;20492;-68
2023/07/14 10:27:58;;;;;;;1.67;0.77;;;22.00;96.10;;;;;;5071896;28;20146;-67
2023/07/14 10:30:36;;;;;;;1.75;0.90;;;22.00;96.30;;;;;;5070966;28;20036;-69
2023/07/14 10:33:05;;;;;;;2.35;0.98;;;22.10;96.20;;;;;;5083370;28;20531;-68
2023/07/14 10:35:35;;;;;;;;;;;22.50;96.90;;;;;;5086030;28;20477;-68
2023/07/14 10:38:22;;;;;;;2.00;0.93;;;23.00;96.80;;;;;;5072246;28;19946;-68
2023/07/14 10:41:05;;;;;;;1.80;0.90;;;23.20;96.00;;;;;;5071739;28;20123;-66
2023/07/14 10:43:36;;;;;;;2.75;1.08;;;23.30;96.40;;;;;;5054867;28;20036;-68
2023/07/14 10:46:10;;;;;;;2.00;0.85;;;23.60;96.50;;;;;;5089566;28;20048;-68
2023/07/14 10:48:56;;;;;;;1.60;1.05;;;23.80;96.50;;;;;;5060105;28;20099;-67
2023/07/14 10:51:29;;;;;;;2.50;1.15;;;24.00;95.90;;;;;;5034197;28;20098;-68
2023/07/14 10:54:18;;;;;;;2.92;1.00;;;24.00;95.40;;;;;;5037032;28;20127;-68
2023/07/14 10:56:48;;;;;;;3.28;1.30;;;24.10;95.80;;;;;;5070923;28;20047;-68
2023/07/14 10:59:26;;;;;;;3.97;1.17;;;24.00;95.30;;;;;;5077139;28;20040;-69
2023/07/14 11:02:10;;;;;;;3.42;1.10;;;23.70;95.00;;;;;;5092751;28;20032;-67
2023/07/14 11:04:43;;;;;;;2.95;1.05;;;23.40;94.50;;;;;;5067606;28;20029;-68
2023/07/14 11:07:17;;;;;;;4.70;1.20;;;23.20;96.10;;;;;;5057204;28;20059;-69
2023/07/14 11:09:46;;;;;;;1.90;1.00;;;23.40;96.30;;;;;;5056780;28;20412;-67
2023/07/14 11:12:22;;;;;;;;;;;23.70;96.60;;;;;;5048683;28;20046;-68
2023/07/14 11:14:59;;;;;;;3.97;1.45;;;24.00;95.80;;;;;;5090568;28;19923;-67
2023/07/14 11:17:45;;;;;;;3.22;1.48;;;24.10;95.90;;;;;;5090623;28;20051;-68
2023/07/14 11:20:39;;;;;;;3.92;1.30;;;24.10;95.90;;;;;;5066708;28;20134;-69
2023/07/14 11:23:44;;;;;;;5.72;2.13;;;24.00;95.70;;;;;;5052112;28;20501;-67
2023/07/14 11:26:28;;;;;;;2.13;1.15;;;23.90;95.20;;;;;;5051266;28;20095;-68
2023/07/14 11:29:18;;;;;;;1.48;0.98;;;23.70;95.60;;;;;;5038912;28;20411;-68
2023/07/14 11:31:50;;;;;;;5.47;1.63;;;23.60;95.80;;;;;;5071305;28;20098;-69
2023/07/14 11:34:24;;;;;;;3.08;1.20;;;23.60;95.80;;;;;;5071987;28;20126;-68
2023/07/14 11:37:17;;;;;;;2.90;1.42;;;23.40;94.70;;;;;;5089763;28;20040;-71
2023/07/14 11:40:00;;;;;;;4.43;1.35;;;23.20;95.20;;;;;;5054670;28;20040;-65
2023/07/14 11:42:34;;;;;;;3.55;1.33;;;23.00;95.40;;;;;;5058286;28;20032;-65
2023/07/14 11:45:05;;;;;;;3.20;1.60;;;23.10;95.80;;;;;;5062941;28;20059;-63
2023/07/14 11:47:37;;;;;;;3.00;1.45;;;23.10;95.90;;;;;;5073301;28;20032;-65
2023/07/14 11:50:19;;;;;;;2.60;1.52;;;23.00;95.60;;;;;;5073848;28;20043;-64
2023/07/14 11:53:01;;;;;;;3.78;1.52;;;22.90;95.80;;;;;;5038580;28;20032;-65
2023/07/14 11:55:30;;;;;;;2.60;1.42;;;22.90;96.00;;;;;;5061312;28;20089;-63
2023/07/14 11:58:24;;;;;;;3.72;1.75;;;23.00;96.20;;;;;;5070236;28;20051;-64
2023/07/14 12:00:59;;;;;;;5.35;1.65;;;22.90;96.20;;;;;;5074454;28;20102;-64
2023/07/14 12:03:36;;;;;;;2.22;1.40;;;22.90;96.10;;;;;;5093707;28;20118;-64
2023/07/14 12:06:20;;;;;;;4.03;1.73;;;22.90;96.40;;;;;;5064026;28;20115;-63
2023/07/14 12:09:04;;;;;;;2.13;1.35;;;23.00;96.50;;;;;;5088485;28;20040;-63
2023/07/14 12:11:54;;;;;;;3.05;1.52;;;23.10;96.20;;;;;;5093818;28;20514;-64
2023/07/14 12:14:35;;;;;;;2.05;1.20;;;23.10;96.40;;;;;;5075095;28;20079;-64
2023/07/14 12:17:02;;;;;;;2.67;1.33;;;23.20;96.50;;;;;;5075325;28;20468;-64
2023/07/14 12:19:49;;;;;;;5.03;1.80;;;23.30;96.40;;;;;;5093073;28;20050;-65
2023/07/14 12:22:37;;;;;;;4.78;2.03;;;23.50;96.30;;;;;;5074648;28;20492;-64
2023/07/14 12:25:11;;;;;;;3.35;1.95;;;23.70;96.20;;;;;;5058471;28;20052;-64
2023/07/14 12:27:41;;;;;;;2.28;1.25;;;23.80;96.10;;;;;;5074593;28;20040;-64
2023/07/14 12:30:25;;;;;;;3.72;1.67;;;23.90;95.90;;;;;;5092792;28;20055;-64
2023/07/14 12:33:03;;;;;;;2.33;1.30;;;23.70;95.40;;;;;;5075055;28;20071;-63
2023/07/14 12:35:32;;;;;;;2.88;1.30;;;23.50;95.70;;;;;;5092567;28;20040;-64
2023/07/14 12:38:27;;;;;;;2.73;1.33;;;23.40;95.90;;;;;;5074847;28;20524;-64
2023/07/14 12:40:56;;;;;;;2.92;1.25;;;23.20;95.70;;;;;;5060834;28;20392;-64
2023/07/14 12:43:36;;;;;;;1.88;1.25;;;23.00;95.10;;;;;;5060484;28;20040;-64
2023/07/14 12:46:21;;;;;;;4.30;2.05;;;22.80;95.50;;;;;;5063708;28;20502;-64
2023/07/14 12:48:48;;;;;;;3.97;2.00;;;22.70;95.70;;;;;;5090003;28;20040;-65
2023/07/14 12:51:19;;;;;;;2.10;1.20;;;22.70;96.00;;;;;;5074220;28;20075;-64
2023/07/14 12:54:00;;;;;;;3.83;1.63;;;22.70;96.10;;;;;;5073470;28;20040;-64
2023/07/14 12:56:29;;;;;;;4.60;1.35;;;22.80;96.30;;;;;;5069546;28;20045;-64
2023/07/14 12:58:58;;;;;;;3.33;1.48;;;23.00;96.70;;;;;;5064593;28;20048;-64
2023/07/14 13:01:24;;;;;;;4.35;1.63;;;23.10;96.50;;;;;;5091583;28;20122;-64
2023/07/14 13:03:50;;;;;;;4.43;1.50;;;23.30;96.30;;;;;;5067124;28;20143;-63
2023/07/14 13:06:18;;;;;;;4.88;1.80;;;23.40;96.20;;;;;;5072731;28;20448;-64
2023/07/14 13:08:49;;;;;;;4.10;1.30;;;23.30;95.70;;;;;;5044379;28;20032;-64